sensor_id;sensor_type;location;lat;lon;timestamp;P1;P2;P0
65574;PMS5003;73096;55.050;73.422;2023-12-14T00:01:36;0.00;0.00;0.00
65574;PMS5003;73096;55.050;73.422;2023-12-14T00:04:40;0.00;0.00;0.00
65574;PMS5003;73096;55.050;73.422;2023-12-14T00:07:43;0.00;0.00;0.00
65574;PMS5003;73096;55.050;73.422;2023-12-14T00:10:45;0.00;0.00;0.00
65574;PMS5003;73096;55.050;73.422;2023-12-14T00:13:49;0.00;0.00;0.00
65574;PMS5003;73096;55.050;73.422;2023-12-14T00:16:51;0.00;0.00;0.00
65574;PMS5003;73096;55.050;73.422;2023-12-14T00:19:54;0.00;0.00;0.00
65574;PMS5003;73096;55.050;73.422;2023-12-14T00:22:57;0.33;0.00;0.00
65574;PMS5003;73096;55.050;73.422;2023-12-14T00:25:59;0.00;0.00;0.00
65574;PMS5003;73096;55.050;73.422;2023-12-14T00:29:02;0.00;0.00;0.00
65574;PMS5003;73096;55.050;73.422;2023-12-14T00:32:04;0.00;0.00;0.00
65574;PMS5003;73096;55.050;73.422;2023-12-14T00:35:07;0.00;0.00;0.00
65574;PMS5003;73096;55.050;73.422;2023-12-14T00:38:10;0.00;0.00;0.00
65574;PMS5003;73096;55.050;73.422;2023-12-14T00:41:12;0.00;0.00;0.00
65574;PMS5003;73096;55.050;73.422;2023-12-14T00:44:15;1.00;0.67;0.00
65574;PMS5003;73096;55.050;73.422;2023-12-14T00:47:17;0.00;0.00;0.00
65574;PMS5003;73096;55.050;73.422;2023-12-14T00:50:19;0.00;0.00;0.00
65574;PMS5003;73096;55.050;73.422;2023-12-14T00:53:22;0.33;0.33;0.00
65574;PMS5003;73096;55.050;73.422;2023-12-14T00:56:24;0.00;0.00;0.00
65574;PMS5003;73096;55.050;73.422;2023-12-14T00:59:26;0.00;0.00;0.00
65574;PMS5003;73096;55.050;73.422;2023-12-14T01:02:29;0.00;0.00;0.00
65574;PMS5003;73096;55.050;73.422;2023-12-14T01:05:31;2.00;0.67;0.00
65574;PMS5003;73096;55.050;73.422;2023-12-14T01:08:33;1.00;0.00;0.00
65574;PMS5003;73096;55.050;73.422;2023-12-14T01:11:35;2.00;1.50;0.00
65574;PMS5003;73096;55.050;73.422;2023-12-14T01:14:38;1.00;1.00;0.00
65574;PMS5003;73096;55.050;73.422;2023-12-14T01:17:40;2.67;1.33;0.00
65574;PMS5003;73096;55.050;73.422;2023-12-14T01:20:42;1.25;1.00;0.00
65574;PMS5003;73096;55.050;73.422;2023-12-14T01:23:44;0.75;0.75;0.00
65574;PMS5003;73096;55.050;73.422;2023-12-14T01:26:46;2.00;2.00;0.00
65574;PMS5003;73096;55.050;73.422;2023-12-14T01:29:49;1.00;0.00;0.00
65574;PMS5003;73096;55.050;73.422;2023-12-14T01:32:51;0.00;0.00;0.00
65574;PMS5003;73096;55.050;73.422;2023-12-14T01:35:53;1.00;0.00;0.00
65574;PMS5003;73096;55.050;73.422;2023-12-14T01:38:55;0.00;0.00;0.00
65574;PMS5003;73096;55.050;73.422;2023-12-14T01:41:57;1.00;1.00;0.00
65574;PMS5003;73096;55.050;73.422;2023-12-14T01:44:59;0.00;0.00;0.00
65574;PMS5003;73096;55.050;73.422;2023-12-14T01:48:04;1.00;1.00;0.00
65574;PMS5003;73096;55.050;73.422;2023-12-14T01:51:07;1.00;1.00;0.00
65574;PMS5003;73096;55.050;73.422;2023-12-14T01:54:09;1.00;1.00;0.00
65574;PMS5003;73096;55.050;73.422;2023-12-14T01:57:11;1.00;1.00;0.00
65574;PMS5003;73096;55.050;73.422;2023-12-14T02:00:17;1.00;1.00;0.00
65574;PMS5003;73096;55.050;73.422;2023-12-14T02:03:22;1.00;0.00;0.00
65574;PMS5003;73096;55.050;73.422;2023-12-14T02:06:24;0.50;0.50;0.00
65574;PMS5003;73096;55.050;73.422;2023-12-14T02:09:26;1.00;1.00;0.00
65574;PMS5003;73096;55.050;73.422;2023-12-14T02:12:29;2.00;1.25;0.00
65574;PMS5003;73096;55.050;73.422;2023-12-14T02:15:31;4.00;2.67;0.00
65574;PMS5003;73096;55.050;73.422;2023-12-14T02:18:34;3.00;3.00;0.50
65574;PMS5003;73096;55.050;73.422;2023-12-14T02:21:56;7.67;5.33;1.33
65574;PMS5003;73096;55.050;73.422;2023-12-14T02:24:58;6.00;4.00;1.00
65574;PMS5003;73096;55.050;73.422;2023-12-14T02:28:02;6.00;4.00;1.00
65574;PMS5003;73096;55.050;73.422;2023-12-14T02:31:05;1.50;1.50;0.50
65574;PMS5003;73096;55.050;73.422;2023-12-14T02:34:08;3.00;1.00;0.00
65574;PMS5003;73096;55.050;73.422;2023-12-14T02:37:11;2.00;1.00;0.00
65574;PMS5003;73096;55.050;73.422;2023-12-14T02:40:16;2.00;1.00;0.00
65574;PMS5003;73096;55.050;73.422;2023-12-14T02:43:21;2.50;1.00;0.00
65574;PMS5003;73096;55.050;73.422;2023-12-14T02:46:26;4.33;3.00;1.00
65574;PMS5003;73096;55.050;73.422;2023-12-14T02:49:29;3.00;1.67;0.00
65574;PMS5003;73096;55.050;73.422;2023-12-14T02:52:31;3.00;2.50;0.00
65574;PMS5003;73096;55.050;73.422;2023-12-14T02:55:34;1.00;1.00;0.00
65574;PMS5003;73096;55.050;73.422;2023-12-14T02:58:37;1.00;1.00;0.00
65574;PMS5003;73096;55.050;73.422;2023-12-14T03:01:39;0.00;0.00;0.00
65574;PMS5003;73096;55.050;73.422;2023-12-14T03:04:42;0.75;0.00;0.00
65574;PMS5003;73096;55.050;73.422;2023-12-14T03:07:44;0.00;0.00;0.00
65574;PMS5003;73096;55.050;73.422;2023-12-14T03:10:46;0.50;0.00;0.00
65574;PMS5003;73096;55.050;73.422;2023-12-14T03:13:49;1.50;1.25;0.00
65574;PMS5003;73096;55.050;73.422;2023-12-14T03:16:53;2.00;1.67;0.00
65574;PMS5003;73096;55.050;73.422;2023-12-14T03:19:55;3.00;3.00;0.00
65574;PMS5003;73096;55.050;73.422;2023-12-14T03:22:57;2.00;1.00;0.00
65574;PMS5003;73096;55.050;73.422;2023-12-14T03:26:01;1.25;0.00;0.00
65574;PMS5003;73096;55.050;73.422;2023-12-14T03:29:03;2.00;0.50;0.00
65574;PMS5003;73096;55.050;73.422;2023-12-14T03:32:05;0.00;0.00;0.00
65574;PMS5003;73096;55.050;73.422;2023-12-14T03:35:09;0.00;0.00;0.00
65574;PMS5003;73096;55.050;73.422;2023-12-14T03:38:15;0.00;0.00;0.00
65574;PMS5003;73096;55.050;73.422;2023-12-14T03:41:17;0.00;0.00;0.00
65574;PMS5003;73096;55.050;73.422;2023-12-14T03:44:19;1.00;1.00;0.00
65574;PMS5003;73096;55.050;73.422;2023-12-14T03:47:23;3.25;3.25;0.00
65574;PMS5003;73096;55.050;73.422;2023-12-14T03:50:27;3.33;3.00;0.00
65574;PMS5003;73096;55.050;73.422;2023-12-14T03:53:30;4.00;3.00;1.00
65574;PMS5003;73096;55.050;73.422;2023-12-14T03:56:32;3.67;2.67;0.00
65574;PMS5003;73096;55.050;73.422;2023-12-14T03:59:38;6.00;4.25;2.00
65574;PMS5003;73096;55.050;73.422;2023-12-14T04:02:40;7.00;4.75;1.00
65574;PMS5003;73096;55.050;73.422;2023-12-14T04:05:43;4.75;4.00;1.00
65574;PMS5003;73096;55.050;73.422;2023-12-14T04:08:46;4.67;4.00;1.00
65574;PMS5003;73096;55.050;73.422;2023-12-14T04:11:48;4.00;3.25;1.00
65574;PMS5003;73096;55.050;73.422;2023-12-14T04:14:52;3.00;2.50;1.00
65574;PMS5003;73096;55.050;73.422;2023-12-14T04:17:55;5.33;3.67;1.00
65574;PMS5003;73096;55.050;73.422;2023-12-14T04:20:57;3.75;3.00;0.00
65574;PMS5003;73096;55.050;73.422;2023-12-14T04:23:59;2.00;2.00;0.00
65574;PMS5003;73096;55.050;73.422;2023-12-14T04:27:02;2.50;1.00;0.25
65574;PMS5003;73096;55.050;73.422;2023-12-14T04:30:05;3.00;2.00;0.00
65574;PMS5003;73096;55.050;73.422;2023-12-14T04:33:13;2.75;2.00;1.00
65574;PMS5003;73096;55.050;73.422;2023-12-14T04:36:16;3.00;3.00;1.00
65574;PMS5003;73096;55.050;73.422;2023-12-14T04:39:18;3.00;3.00;0.00
65574;PMS5003;73096;55.050;73.422;2023-12-14T04:42:20;2.67;2.00;1.00
65574;PMS5003;73096;55.050;73.422;2023-12-14T04:45:23;3.00;3.00;0.00
65574;PMS5003;73096;55.050;73.422;2023-12-14T04:48:26;4.33;3.67;0.00
65574;PMS5003;73096;55.050;73.422;2023-12-14T04:51:28;3.67;3.00;1.00
65574;PMS5003;73096;55.050;73.422;2023-12-14T04:54:33;4.75;3.75;2.00
65574;PMS5003;73096;55.050;73.422;2023-12-14T04:57:37;6.00;6.00;2.00
65574;PMS5003;73096;55.050;73.422;2023-12-14T05:00:39;4.00;4.00;1.00
65574;PMS5003;73096;55.050;73.422;2023-12-14T05:03:42;4.00;4.00;0.50
65574;PMS5003;73096;55.050;73.422;2023-12-14T05:06:44;4.00;3.00;1.00
65574;PMS5003;73096;55.050;73.422;2023-12-14T05:09:47;1.00;1.00;0.00
65574;PMS5003;73096;55.050;73.422;2023-12-14T05:12:49;2.33;1.67;0.00
65574;PMS5003;73096;55.050;73.422;2023-12-14T05:15:51;2.25;2.25;0.00
65574;PMS5003;73096;55.050;73.422;2023-12-14T05:18:55;4.00;2.50;0.00
65574;PMS5003;73096;55.050;73.422;2023-12-14T05:21:57;3.00;3.00;0.00
65574;PMS5003;73096;55.050;73.422;2023-12-14T05:24:59;4.00;4.00;1.00
65574;PMS5003;73096;55.050;73.422;2023-12-14T05:28:01;3.00;3.00;1.00
65574;PMS5003;73096;55.050;73.422;2023-12-14T05:31:04;2.50;2.50;1.00
65574;PMS5003;73096;55.050;73.422;2023-12-14T05:34:06;3.33;2.67;0.00
65574;PMS5003;73096;55.050;73.422;2023-12-14T05:37:08;4.00;3.00;0.00
65574;PMS5003;73096;55.050;73.422;2023-12-14T05:40:11;1.33;1.33;0.00
65574;PMS5003;73096;55.050;73.422;2023-12-14T05:43:13;1.00;1.00;0.00
65574;PMS5003;73096;55.050;73.422;2023-12-14T05:46:22;0.33;0.00;0.00
65574;PMS5003;73096;55.050;73.422;2023-12-14T05:49:26;2.00;1.67;0.00
65574;PMS5003;73096;55.050;73.422;2023-12-14T05:52:28;3.00;2.33;0.00
65574;PMS5003;73096;55.050;73.422;2023-12-14T05:55:31;3.00;3.00;0.00
65574;PMS5003;73096;55.050;73.422;2023-12-14T05:58:34;1.00;1.00;0.00
65574;PMS5003;73096;55.050;73.422;2023-12-14T06:01:36;0.00;0.00;0.00
65574;PMS5003;73096;55.050;73.422;2023-12-14T06:04:39;3.00;3.00;0.00
65574;PMS5003;73096;55.050;73.422;2023-12-14T06:07:41;4.00;3.00;1.00
65574;PMS5003;73096;55.050;73.422;2023-12-14T06:10:44;3.00;3.00;1.00
65574;PMS5003;73096;55.050;73.422;2023-12-14T06:13:46;3.33;3.00;1.00
65574;PMS5003;73096;55.050;73.422;2023-12-14T06:16:48;4.00;4.00;1.00
65574;PMS5003;73096;55.050;73.422;2023-12-14T06:19:50;4.33;4.33;1.00
65574;PMS5003;73096;55.050;73.422;2023-12-14T06:22:52;6.50;6.00;2.75
65574;PMS5003;73096;55.050;73.422;2023-12-14T06:25:56;6.00;5.00;2.25
65574;PMS5003;73096;55.050;73.422;2023-12-14T06:28:58;3.67;3.00;1.00
65574;PMS5003;73096;55.050;73.422;2023-12-14T06:32:00;4.50;3.00;1.00
65574;PMS5003;73096;55.050;73.422;2023-12-14T06:35:03;1.00;1.00;0.00
65574;PMS5003;73096;55.050;73.422;2023-12-14T06:38:06;1.00;1.00;0.00
65574;PMS5003;73096;55.050;73.422;2023-12-14T06:41:08;3.00;3.00;0.00
65574;PMS5003;73096;55.050;73.422;2023-12-14T06:44:12;3.00;3.00;0.00
65574;PMS5003;73096;55.050;73.422;2023-12-14T06:47:14;3.00;2.00;0.00
65574;PMS5003;73096;55.050;73.422;2023-12-14T06:50:16;2.00;1.00;0.00
65574;PMS5003;73096;55.050;73.422;2023-12-14T06:53:20;2.00;1.67;0.00
65574;PMS5003;73096;55.050;73.422;2023-12-14T06:56:22;4.00;4.00;1.00
65574;PMS5003;73096;55.050;73.422;2023-12-14T06:59:26;4.25;4.25;1.00
65574;PMS5003;73096;55.050;73.422;2023-12-14T07:02:28;3.00;3.00;0.00
65574;PMS5003;73096;55.050;73.422;2023-12-14T07:05:31;2.00;2.00;0.00
65574;PMS5003;73096;55.050;73.422;2023-12-14T07:08:34;3.00;3.00;0.00
65574;PMS5003;73096;55.050;73.422;2023-12-14T07:11:37;4.67;2.00;0.00
65574;PMS5003;73096;55.050;73.422;2023-12-14T07:14:39;3.00;3.00;1.00
65574;PMS5003;73096;55.050;73.422;2023-12-14T07:17:41;4.67;3.67;0.00
65574;PMS5003;73096;55.050;73.422;2023-12-14T07:20:45;4.75;2.75;0.00
65574;PMS5003;73096;55.050;73.422;2023-12-14T07:23:47;2.00;2.00;0.00
65574;PMS5003;73096;55.050;73.422;2023-12-14T07:26:49;5.50;5.00;1.00
65574;PMS5003;73096;55.050;73.422;2023-12-14T07:29:53;7.00;6.00;3.00
65574;PMS5003;73096;55.050;73.422;2023-12-14T07:32:55;5.00;5.00;2.00
65574;PMS5003;73096;55.050;73.422;2023-12-14T07:35:57;5.00;3.50;1.00
65574;PMS5003;73096;55.050;73.422;2023-12-14T07:38:59;2.67;2.67;1.00
65574;PMS5003;73096;55.050;73.422;2023-12-14T07:42:03;4.00;3.00;1.00
65574;PMS5003;73096;55.050;73.422;2023-12-14T07:45:07;5.00;3.75;1.00
65574;PMS5003;73096;55.050;73.422;2023-12-14T07:48:11;3.00;3.00;1.00
65574;PMS5003;73096;55.050;73.422;2023-12-14T07:51:13;2.75;2.00;0.00
65574;PMS5003;73096;55.050;73.422;2023-12-14T07:54:17;3.00;2.00;0.00
65574;PMS5003;73096;55.050;73.422;2023-12-14T07:57:21;5.00;5.00;0.00
65574;PMS5003;73096;55.050;73.422;2023-12-14T08:00:24;2.00;2.00;1.00
65574;PMS5003;73096;55.050;73.422;2023-12-14T08:03:27;3.00;3.00;0.00
65574;PMS5003;73096;55.050;73.422;2023-12-14T08:06:30;3.00;3.00;0.00
65574;PMS5003;73096;55.050;73.422;2023-12-14T08:09:32;4.00;4.00;0.00
65574;PMS5003;73096;55.050;73.422;2023-12-14T08:12:35;4.00;4.00;0.00
65574;PMS5003;73096;55.050;73.422;2023-12-14T08:15:37;3.00;3.00;0.00
65574;PMS5003;73096;55.050;73.422;2023-12-14T08:18:39;3.25;3.00;0.00
65574;PMS5003;73096;55.050;73.422;2023-12-14T08:21:44;8.50;6.75;3.75
65574;PMS5003;73096;55.050;73.422;2023-12-14T08:24:46;9.00;5.00;1.00
65574;PMS5003;73096;55.050;73.422;2023-12-14T08:27:49;5.00;3.00;1.00
65574;PMS5003;73096;55.050;73.422;2023-12-14T08:30:53;3.00;3.00;0.00
65574;PMS5003;73096;55.050;73.422;2023-12-14T08:33:56;5.00;3.75;1.00
65574;PMS5003;73096;55.050;73.422;2023-12-14T08:37:00;5.00;4.00;2.00
65574;PMS5003;73096;55.050;73.422;2023-12-14T08:40:03;7.00;5.00;2.00
65574;PMS5003;73096;55.050;73.422;2023-12-14T08:43:05;4.00;2.00;1.00
65574;PMS5003;73096;55.050;73.422;2023-12-14T08:46:08;4.00;3.00;1.00
65574;PMS5003;73096;55.050;73.422;2023-12-14T08:49:12;7.50;6.75;3.00
65574;PMS5003;73096;55.050;73.422;2023-12-14T08:52:16;5.00;5.00;1.00
65574;PMS5003;73096;55.050;73.422;2023-12-14T08:55:20;4.00;3.00;1.00
65574;PMS5003;73096;55.050;73.422;2023-12-14T08:58:22;3.00;3.00;0.00
65574;PMS5003;73096;55.050;73.422;2023-12-14T09:01:25;3.00;3.00;1.00
65574;PMS5003;73096;55.050;73.422;2023-12-14T09:04:27;3.00;3.00;1.00
65574;PMS5003;73096;55.050;73.422;2023-12-14T09:07:30;4.00;4.00;1.00
65574;PMS5003;73096;55.050;73.422;2023-12-14T09:10:32;2.00;2.00;0.00
65574;PMS5003;73096;55.050;73.422;2023-12-14T09:13:34;2.00;2.00;0.00
65574;PMS5003;73096;55.050;73.422;2023-12-14T09:16:36;1.00;1.00;0.00
65574;PMS5003;73096;55.050;73.422;2023-12-14T09:19:52;3.00;2.75;0.00
65574;PMS5003;73096;55.050;73.422;2023-12-14T09:22:55;3.00;2.00;0.00
65574;PMS5003;73096;55.050;73.422;2023-12-14T09:25:57;3.25;3.00;0.75
65574;PMS5003;73096;55.050;73.422;2023-12-14T09:29:01;3.00;3.00;0.00
65574;PMS5003;73096;55.050;73.422;2023-12-14T09:32:04;2.25;2.00;1.00
65574;PMS5003;73096;55.050;73.422;2023-12-14T09:35:06;3.00;3.00;1.00
65574;PMS5003;73096;55.050;73.422;2023-12-14T09:38:08;3.00;2.00;0.75
65574;PMS5003;73096;55.050;73.422;2023-12-14T09:41:12;5.50;5.50;1.25
65574;PMS5003;73096;55.050;73.422;2023-12-14T09:44:14;3.00;3.00;1.00
65574;PMS5003;73096;55.050;73.422;2023-12-14T09:47:16;3.00;2.00;1.00
65574;PMS5003;73096;55.050;73.422;2023-12-14T09:50:22;2.00;1.00;0.00
65574;PMS5003;73096;55.050;73.422;2023-12-14T09:53:25;1.00;0.00;0.00
65574;PMS5003;73096;55.050;73.422;2023-12-14T09:56:28;3.00;1.00;0.00
65574;PMS5003;73096;55.050;73.422;2023-12-14T09:59:32;4.00;3.00;0.00
65574;PMS5003;73096;55.050;73.422;2023-12-14T10:02:34;2.00;1.67;0.00
65574;PMS5003;73096;55.050;73.422;2023-12-14T10:05:37;2.00;1.00;0.00
65574;PMS5003;73096;55.050;73.422;2023-12-14T10:08:40;2.00;1.00;0.00
65574;PMS5003;73096;55.050;73.422;2023-12-14T10:11:43;1.00;0.67;0.00
65574;PMS5003;73096;55.050;73.422;2023-12-14T10:14:47;2.25;1.25;0.00
65574;PMS5003;73096;55.050;73.422;2023-12-14T10:17:51;3.00;3.00;0.00
65574;PMS5003;73096;55.050;73.422;2023-12-14T10:20:56;1.50;1.00;0.00
65574;PMS5003;73096;55.050;73.422;2023-12-14T10:23:59;1.00;1.00;0.00
65574;PMS5003;73096;55.050;73.422;2023-12-14T10:27:06;3.00;3.00;0.00
65574;PMS5003;73096;55.050;73.422;2023-12-14T10:30:09;3.00;3.00;0.00
65574;PMS5003;73096;55.050;73.422;2023-12-14T10:33:14;3.00;3.00;1.00
65574;PMS5003;73096;55.050;73.422;2023-12-14T10:36:18;2.67;2.67;1.00
65574;PMS5003;73096;55.050;73.422;2023-12-14T10:39:21;6.00;3.25;1.00
65574;PMS5003;73096;55.050;73.422;2023-12-14T10:42:23;5.00;4.00;1.00
65574;PMS5003;73096;55.050;73.422;2023-12-14T10:45:33;3.00;3.00;1.00
65574;PMS5003;73096;55.050;73.422;2023-12-14T10:48:36;3.00;3.00;1.00
65574;PMS5003;73096;55.050;73.422;2023-12-14T10:51:45;5.00;4.25;1.00
65574;PMS5003;73096;55.050;73.422;2023-12-14T10:54:52;6.00;5.00;3.00
65574;PMS5003;73096;55.050;73.422;2023-12-14T10:57:57;7.75;6.50;3.00
65574;PMS5003;73096;55.050;73.422;2023-12-14T11:00:59;9.00;7.67;3.00
65574;PMS5003;73096;55.050;73.422;2023-12-14T11:04:05;10.75;7.75;3.75
65574;PMS5003;73096;55.050;73.422;2023-12-14T11:07:10;9.50;5.00;2.00
65574;PMS5003;73096;55.050;73.422;2023-12-14T11:10:13;8.00;5.00;2.00
65574;PMS5003;73096;55.050;73.422;2023-12-14T11:13:16;4.67;4.00;2.00
65574;PMS5003;73096;55.050;73.422;2023-12-14T11:16:22;3.00;3.00;1.00
65574;PMS5003;73096;55.050;73.422;2023-12-14T11:19:25;3.00;3.00;1.67
65574;PMS5003;73096;55.050;73.422;2023-12-14T11:22:30;4.00;3.33;2.00
65574;PMS5003;73096;55.050;73.422;2023-12-14T11:25:33;8.67;8.00;4.00
65574;PMS5003;73096;55.050;73.422;2023-12-14T11:28:38;11.00;9.50;4.00
65574;PMS5003;73096;55.050;73.422;2023-12-14T11:31:45;13.75;10.50;4.00
65574;PMS5003;73096;55.050;73.422;2023-12-14T11:34:48;11.00;9.00;3.00
65574;PMS5003;73096;55.050;73.422;2023-12-14T11:37:51;10.25;8.00;3.00
65574;PMS5003;73096;55.050;73.422;2023-12-14T11:40:55;13.00;11.00;4.00
65574;PMS5003;73096;55.050;73.422;2023-12-14T11:43:58;11.00;11.00;4.00
65574;PMS5003;73096;55.050;73.422;2023-12-14T11:47:02;8.75;8.75;3.00
65574;PMS5003;73096;55.050;73.422;2023-12-14T11:50:04;6.00;5.00;3.00
65574;PMS5003;73096;55.050;73.422;2023-12-14T11:53:07;9.25;9.00;3.25
65574;PMS5003;73096;55.050;73.422;2023-12-14T11:56:10;9.00;7.00;3.00
65574;PMS5003;73096;55.050;73.422;2023-12-14T11:59:12;13.00;9.00;3.00
65574;PMS5003;73096;55.050;73.422;2023-12-14T12:02:22;10.67;9.00;3.00
65574;PMS5003;73096;55.050;73.422;2023-12-14T12:05:39;11.00;9.00;3.00
65574;PMS5003;73096;55.050;73.422;2023-12-14T12:08:43;10.75;8.00;3.00
65574;PMS5003;73096;55.050;73.422;2023-12-14T12:11:46;9.50;4.00;1.25
65574;PMS5003;73096;55.050;73.422;2023-12-14T12:14:50;6.00;3.00;1.00
65574;PMS5003;73096;55.050;73.422;2023-12-14T12:18:16;4.00;4.00;2.00
65574;PMS5003;73096;55.050;73.422;2023-12-14T12:21:20;5.67;4.00;3.00
65574;PMS5003;73096;55.050;73.422;2023-12-14T12:24:23;4.25;4.00;2.00
65574;PMS5003;73096;55.050;73.422;2023-12-14T12:27:25;3.33;3.33;1.00
65574;PMS5003;73096;55.050;73.422;2023-12-14T12:30:28;4.00;3.67;1.00
65574;PMS5003;73096;55.050;73.422;2023-12-14T12:33:31;4.00;4.00;2.33
65574;PMS5003;73096;55.050;73.422;2023-12-14T12:36:40;4.25;4.00;1.00
65574;PMS5003;73096;55.050;73.422;2023-12-14T12:39:42;6.00;4.00;1.00
65574;PMS5003;73096;55.050;73.422;2023-12-14T12:42:44;4.00;3.00;0.00
65574;PMS5003;73096;55.050;73.422;2023-12-14T12:45:46;4.00;3.00;1.00
65574;PMS5003;73096;55.050;73.422;2023-12-14T12:48:49;4.00;3.75;1.00
65574;PMS5003;73096;55.050;73.422;2023-12-14T12:51:53;7.33;6.67;2.67
65574;PMS5003;73096;55.050;73.422;2023-12-14T12:54:55;6.33;4.00;2.00
65574;PMS5003;73096;55.050;73.422;2023-12-14T12:57:57;7.50;6.00;3.00
65574;PMS5003;73096;55.050;73.422;2023-12-14T13:01:07;9.25;8.00;3.00
65574;PMS5003;73096;55.050;73.422;2023-12-14T13:04:19;10.33;8.00;4.00
65574;PMS5003;73096;55.050;73.422;2023-12-14T13:07:22;10.75;9.50;4.00
65574;PMS5003;73096;55.050;73.422;2023-12-14T13:10:25;8.00;7.67;3.00
65574;PMS5003;73096;55.050;73.422;2023-12-14T13:13:29;5.00;4.00;1.00
65574;PMS5003;73096;55.050;73.422;2023-12-14T13:16:34;4.00;4.00;1.00
65574;PMS5003;73096;55.050;73.422;2023-12-14T13:19:38;3.75;3.75;1.00
65574;PMS5003;73096;55.050;73.422;2023-12-14T13:22:52;3.25;3.00;1.00
65574;PMS5003;73096;55.050;73.422;2023-12-14T13:25:55;4.00;3.67;3.00
65574;PMS5003;73096;55.050;73.422;2023-12-14T13:28:57;5.25;4.00;2.00
65574;PMS5003;73096;55.050;73.422;2023-12-14T13:32:02;5.00;4.00;1.00
65574;PMS5003;73096;55.050;73.422;2023-12-14T13:35:05;4.00;4.00;1.33
65574;PMS5003;73096;55.050;73.422;2023-12-14T13:38:07;4.00;4.00;2.25
65574;PMS5003;73096;55.050;73.422;2023-12-14T13:41:15;6.00;6.00;3.00
65574;PMS5003;73096;55.050;73.422;2023-12-14T13:44:17;6.00;5.00;2.50
65574;PMS5003;73096;55.050;73.422;2023-12-14T13:47:20;5.00;5.00;3.00
65574;PMS5003;73096;55.050;73.422;2023-12-14T13:50:23;6.00;6.00;2.75
65574;PMS5003;73096;55.050;73.422;2023-12-14T13:53:28;9.25;8.50;4.00
65574;PMS5003;73096;55.050;73.422;2023-12-14T13:56:30;8.00;8.00;3.00
65574;PMS5003;73096;55.050;73.422;2023-12-14T13:59:33;8.75;7.50;3.00
65574;PMS5003;73096;55.050;73.422;2023-12-14T14:02:36;9.00;8.00;3.00
65574;PMS5003;73096;55.050;73.422;2023-12-14T14:05:38;7.33;7.33;2.00
65574;PMS5003;73096;55.050;73.422;2023-12-14T14:08:40;6.00;4.50;1.00
65574;PMS5003;73096;55.050;73.422;2023-12-14T14:11:42;3.00;3.00;1.00
65574;PMS5003;73096;55.050;73.422;2023-12-14T14:14:48;6.00;4.00;1.00
65574;PMS5003;73096;55.050;73.422;2023-12-14T14:17:51;5.75;4.25;2.00
65574;PMS5003;73096;55.050;73.422;2023-12-14T14:20:55;6.00;6.00;3.00
65574;PMS5003;73096;55.050;73.422;2023-12-14T14:23:57;10.50;8.50;3.50
65574;PMS5003;73096;55.050;73.422;2023-12-14T14:27:01;7.75;7.00;3.00
65574;PMS5003;73096;55.050;73.422;2023-12-14T14:30:04;9.00;6.00;3.00
65574;PMS5003;73096;55.050;73.422;2023-12-14T14:33:08;10.50;7.25;4.00
65574;PMS5003;73096;55.050;73.422;2023-12-14T14:36:23;11.00;8.00;3.75
65574;PMS5003;73096;55.050;73.422;2023-12-14T14:39:25;9.00;6.00;1.50
65574;PMS5003;73096;55.050;73.422;2023-12-14T14:42:28;8.00;6.00;3.00
65574;PMS5003;73096;55.050;73.422;2023-12-14T14:45:31;7.00;6.00;3.00
65574;PMS5003;73096;55.050;73.422;2023-12-14T14:48:33;6.00;5.00;2.50
65574;PMS5003;73096;55.050;73.422;2023-12-14T14:51:36;9.00;7.50;3.50
65574;PMS5003;73096;55.050;73.422;2023-12-14T14:54:40;11.50;11.00;5.00
65574;PMS5003;73096;55.050;73.422;2023-12-14T14:57:42;11.00;10.00;4.00
65574;PMS5003;73096;55.050;73.422;2023-12-14T15:00:45;13.00;12.00;6.00
65574;PMS5003;73096;55.050;73.422;2023-12-14T15:03:50;9.00;8.50;3.25
65574;PMS5003;73096;55.050;73.422;2023-12-14T15:06:52;7.00;6.00;3.00
65574;PMS5003;73096;55.050;73.422;2023-12-14T15:09:55;6.00;5.00;3.00
65574;PMS5003;73096;55.050;73.422;2023-12-14T15:12:57;7.00;6.00;3.00
65574;PMS5003;73096;55.050;73.422;2023-12-14T15:15:59;8.00;5.00;2.00
65574;PMS5003;73096;55.050;73.422;2023-12-14T15:19:02;8.00;6.00;3.00
65574;PMS5003;73096;55.050;73.422;2023-12-14T15:22:05;7.00;7.00;4.00
65574;PMS5003;73096;55.050;73.422;2023-12-14T15:25:08;10.75;9.00;4.00
65574;PMS5003;73096;55.050;73.422;2023-12-14T15:28:10;9.00;9.00;4.00
65574;PMS5003;73096;55.050;73.422;2023-12-14T15:31:14;11.50;11.00;5.25
65574;PMS5003;73096;55.050;73.422;2023-12-14T15:34:17;11.00;11.00;3.50
65574;PMS5003;73096;55.050;73.422;2023-12-14T15:37:20;11.00;10.75;4.00
65574;PMS5003;73096;55.050;73.422;2023-12-14T15:40:23;12.00;9.00;3.75
65574;PMS5003;73096;55.050;73.422;2023-12-14T15:43:26;11.00;9.00;3.25
65574;PMS5003;73096;55.050;73.422;2023-12-14T15:46:29;12.00;9.00;3.33
65574;PMS5003;73096;55.050;73.422;2023-12-14T15:49:32;10.75;9.00;4.00
65574;PMS5003;73096;55.050;73.422;2023-12-14T15:52:34;9.00;6.00;3.00
65574;PMS5003;73096;55.050;73.422;2023-12-14T15:55:37;11.00;8.00;4.00
65574;PMS5003;73096;55.050;73.422;2023-12-14T15:58:40;9.75;9.00;4.00
65574;PMS5003;73096;55.050;73.422;2023-12-14T16:01:44;11.00;11.00;4.00
65574;PMS5003;73096;55.050;73.422;2023-12-14T16:04:48;9.00;8.25;3.75
65574;PMS5003;73096;55.050;73.422;2023-12-14T16:07:59;10.25;9.00;4.00
65574;PMS5003;73096;55.050;73.422;2023-12-14T16:11:02;11.00;10.00;4.00
65574;PMS5003;73096;55.050;73.422;2023-12-14T16:14:06;11.50;11.25;4.75
65574;PMS5003;73096;55.050;73.422;2023-12-14T16:17:08;12.00;11.00;4.00
65574;PMS5003;73096;55.050;73.422;2023-12-14T16:20:14;12.50;11.75;4.00
65574;PMS5003;73096;55.050;73.422;2023-12-14T16:23:23;14.00;13.00;6.00
65574;PMS5003;73096;55.050;73.422;2023-12-14T16:26:26;17.00;16.00;7.00
65574;PMS5003;73096;55.050;73.422;2023-12-14T16:29:29;16.50;14.25;7.25
65574;PMS5003;73096;55.050;73.422;2023-12-14T16:32:32;13.00;12.00;5.00
65574;PMS5003;73096;55.050;73.422;2023-12-14T16:35:35;16.00;14.00;6.25
65574;PMS5003;73096;55.050;73.422;2023-12-14T16:38:39;13.67;12.00;4.00
65574;PMS5003;73096;55.050;73.422;2023-12-14T16:41:42;12.75;12.00;4.00
65574;PMS5003;73096;55.050;73.422;2023-12-14T16:44:50;12.00;11.00;4.00
65574;PMS5003;73096;55.050;73.422;2023-12-14T16:47:53;11.00;10.00;4.00
65574;PMS5003;73096;55.050;73.422;2023-12-14T16:50:59;11.00;9.50;4.00
65574;PMS5003;73096;55.050;73.422;2023-12-14T16:54:02;10.00;9.00;4.00
65574;PMS5003;73096;55.050;73.422;2023-12-14T16:57:05;9.50;8.50;3.50
65574;PMS5003;73096;55.050;73.422;2023-12-14T17:00:09;7.00;4.00;2.00
65574;PMS5003;73096;55.050;73.422;2023-12-14T17:03:12;10.00;8.00;3.75
65574;PMS5003;73096;55.050;73.422;2023-12-14T17:06:19;9.75;7.25;3.00
65574;PMS5003;73096;55.050;73.422;2023-12-14T17:09:22;11.00;9.00;3.00
65574;PMS5003;73096;55.050;73.422;2023-12-14T17:12:24;8.00;7.00;3.00
65574;PMS5003;73096;55.050;73.422;2023-12-14T17:15:28;11.00;9.00;4.00
65574;PMS5003;73096;55.050;73.422;2023-12-14T17:18:30;11.00;9.00;3.00
65574;PMS5003;73096;55.050;73.422;2023-12-14T17:21:32;11.00;9.50;4.00
65574;PMS5003;73096;55.050;73.422;2023-12-14T17:24:35;12.00;9.00;4.00
65574;PMS5003;73096;55.050;73.422;2023-12-14T17:27:37;14.00;12.00;5.00
65574;PMS5003;73096;55.050;73.422;2023-12-14T17:30:39;12.00;10.00;3.67
65574;PMS5003;73096;55.050;73.422;2023-12-14T17:33:43;12.50;11.00;4.00